sensor_id;sensor_type;location;lat;lon;timestamp;pressure;altitude;pressure_sealevel;temperature;humidity
61318;BME280;47201;40.428;-8.436;2023-08-12T00:01:33;101257.31;;;21.99;100.00
61318;BME280;47201;40.428;-8.436;2023-08-12T00:03:34;101262.81;;;21.95;100.00
61318;BME280;47201;40.428;-8.436;2023-08-12T00:05:35;101265.44;;;21.96;100.00
61318;BME280;47201;40.428;-8.436;2023-08-12T00:07:36;101266.19;;;22.00;100.00
61318;BME280;47201;40.428;-8.436;2023-08-12T00:09:36;101267.91;;;22.01;100.00
61318;BME280;47201;40.428;-8.436;2023-08-12T00:11:38;101267.78;;;22.04;100.00
61318;BME280;47201;40.428;-8.436;2023-08-12T00:13:38;101261.34;;;22.10;100.00
61318;BME280;47201;40.428;-8.436;2023-08-12T00:15:39;101265.59;;;22.14;100.00
61318;BME280;47201;40.428;-8.436;2023-08-12T00:17:41;101252.28;;;22.14;100.00
61318;BME280;47201;40.428;-8.436;2023-08-12T00:19:41;101260.28;;;22.14;100.00
61318;BME280;47201;40.428;-8.436;2023-08-12T00:21:42;101254.56;;;22.02;100.00
61318;BME280;47201;40.428;-8.436;2023-08-12T00:23:43;101249.47;;;21.96;100.00
61318;BME280;47201;40.428;-8.436;2023-08-12T00:25:44;101249.03;;;21.85;100.00
61318;BME280;47201;40.428;-8.436;2023-08-12T00:27:45;101243.91;;;21.80;100.00
61318;BME280;47201;40.428;-8.436;2023-08-12T00:29:45;101256.38;;;21.78;100.00
61318;BME280;47201;40.428;-8.436;2023-08-12T00:31:46;101251.06;;;21.78;100.00
61318;BME280;47201;40.428;-8.436;2023-08-12T00:33:49;101259.84;;;21.80;100.00
61318;BME280;47201;40.428;-8.436;2023-08-12T00:35:49;101247.44;;;21.81;100.00
61318;BME280;47201;40.428;-8.436;2023-08-12T00:37:50;101248.47;;;21.77;100.00
61318;BME280;47201;40.428;-8.436;2023-08-12T00:39:50;101251.03;;;21.80;100.00
61318;BME280;47201;40.428;-8.436;2023-08-12T00:41:51;101253.72;;;21.78;100.00
61318;BME280;47201;40.428;-8.436;2023-08-12T00:43:54;101255.41;;;21.81;100.00
61318;BME280;47201;40.428;-8.436;2023-08-12T00:45:54;101250.22;;;21.78;100.00
61318;BME280;47201;40.428;-8.436;2023-08-12T00:47:55;101248.28;;;21.81;100.00
61318;BME280;47201;40.428;-8.436;2023-08-12T00:49:56;101251.81;;;21.82;100.00
61318;BME280;47201;40.428;-8.436;2023-08-12T00:51:59;101251.81;;;21.82;100.00
61318;BME280;47201;40.428;-8.436;2023-08-12T00:54:02;101239.31;;;21.84;100.00
61318;BME280;47201;40.428;-8.436;2023-08-12T00:56:04;101237.56;;;21.83;100.00
61318;BME280;47201;40.428;-8.436;2023-08-12T00:58:05;101232.13;;;21.86;100.00
61318;BME280;47201;40.428;-8.436;2023-08-12T01:00:06;101232.88;;;21.90;100.00
61318;BME280;47201;40.428;-8.436;2023-08-12T01:02:08;101221.38;;;21.89;100.00
61318;BME280;47201;40.428;-8.436;2023-08-12T01:04:09;101226.72;;;21.89;100.00
61318;BME280;47201;40.428;-8.436;2023-08-12T01:06:10;101223.22;;;21.87;100.00
61318;BME280;47201;40.428;-8.436;2023-08-12T01:08:10;101217.72;;;21.92;100.00
61318;BME280;47201;40.428;-8.436;2023-08-12T01:10:11;101215.91;;;21.92;100.00
61318;BME280;47201;40.428;-8.436;2023-08-12T01:12:26;101210.59;;;21.92;100.00
61318;BME280;47201;40.428;-8.436;2023-08-12T01:14:56;101214.00;;;21.96;100.00
61318;BME280;47201;40.428;-8.436;2023-08-12T01:17:02;101215.91;;;21.92;100.00
61318;BME280;47201;40.428;-8.436;2023-08-12T01:19:06;101214.19;;;21.91;100.00
61318;BME280;47201;40.428;-8.436;2023-08-12T01:21:14;101210.66;;;21.91;100.00
61318;BME280;47201;40.428;-8.436;2023-08-12T01:23:18;101203.69;;;21.88;100.00
61318;BME280;47201;40.428;-8.436;2023-08-12T01:25:20;101207.13;;;21.90;100.00
61318;BME280;47201;40.428;-8.436;2023-08-12T01:27:21;101206.16;;;21.93;100.00
61318;BME280;47201;40.428;-8.436;2023-08-12T01:29:21;101198.94;;;21.95;100.00
61318;BME280;47201;40.428;-8.436;2023-08-12T01:31:23;101199.94;;;21.92;100.00
61318;BME280;47201;40.428;-8.436;2023-08-12T01:34:03;101201.81;;;21.90;100.00
61318;BME280;47201;40.428;-8.436;2023-08-12T01:36:23;101196.53;;;21.89;100.00
61318;BME280;47201;40.428;-8.436;2023-08-12T01:38:25;101198.47;;;21.85;100.00
61318;BME280;47201;40.428;-8.436;2023-08-12T01:40:28;101197.47;;;21.87;100.00
61318;BME280;47201;40.428;-8.436;2023-08-12T01:42:32;101198.41;;;21.86;100.00
61318;BME280;47201;40.428;-8.436;2023-08-12T01:44:33;101188.75;;;21.84;100.00
61318;BME280;47201;40.428;-8.436;2023-08-12T01:46:33;101189.69;;;21.83;100.00
61318;BME280;47201;40.428;-8.436;2023-08-12T01:48:34;101185.16;;;21.85;100.00
61318;BME280;47201;40.428;-8.436;2023-08-12T01:50:36;101185.06;;;21.88;100.00
61318;BME280;47201;40.428;-8.436;2023-08-12T01:52:36;101178.09;;;21.84;100.00
61318;BME280;47201;40.428;-8.436;2023-08-12T01:54:37;101177.19;;;21.85;100.00
61318;BME280;47201;40.428;-8.436;2023-08-12T01:56:37;101179.09;;;21.81;100.00
61318;BME280;47201;40.428;-8.436;2023-08-12T01:58:38;101179.03;;;21.83;100.00
61318;BME280;47201;40.428;-8.436;2023-08-12T02:00:39;101184.25;;;21.86;100.00
61318;BME280;47201;40.428;-8.436;2023-08-12T02:02:39;101180.03;;;21.80;100.00
61318;BME280;47201;40.428;-8.436;2023-08-12T02:04:40;101181.56;;;21.86;100.00
61318;BME280;47201;40.428;-8.436;2023-08-12T02:06:43;101175.34;;;21.87;100.00
61318;BME280;47201;40.428;-8.436;2023-08-12T02:08:43;101176.88;;;21.93;100.00
61318;BME280;47201;40.428;-8.436;2023-08-12T02:10:44;101175.06;;;21.93;100.00
61318;BME280;47201;40.428;-8.436;2023-08-12T02:12:44;101169.81;;;21.92;100.00
61318;BME280;47201;40.428;-8.436;2023-08-12T02:14:45;101167.09;;;21.93;100.00
61318;BME280;47201;40.428;-8.436;2023-08-12T02:16:46;101156.63;;;21.89;100.00
61318;BME280;47201;40.428;-8.436;2023-08-12T02:18:46;101155.63;;;21.91;100.00
61318;BME280;47201;40.428;-8.436;2023-08-12T02:20:47;101166.41;;;21.88;100.00
61318;BME280;47201;40.428;-8.436;2023-08-12T02:22:48;101160.19;;;21.89;100.00
61318;BME280;47201;40.428;-8.436;2023-08-12T02:24:49;101154.16;;;21.84;100.00
61318;BME280;47201;40.428;-8.436;2023-08-12T02:26:50;101149.84;;;21.81;100.00
61318;BME280;47201;40.428;-8.436;2023-08-12T02:28:50;101157.63;;;21.86;100.00
61318;BME280;47201;40.428;-8.436;2023-08-12T02:30:51;101152.31;;;21.86;100.00
61318;BME280;47201;40.428;-8.436;2023-08-12T02:32:51;101145.44;;;21.80;100.00
61318;BME280;47201;40.428;-8.436;2023-08-12T02:34:52;101144.44;;;21.83;100.00
61318;BME280;47201;40.428;-8.436;2023-08-12T02:36:53;101150.69;;;21.82;100.00
61318;BME280;47201;40.428;-8.436;2023-08-12T02:38:53;101146.38;;;21.79;100.00
61318;BME280;47201;40.428;-8.436;2023-08-12T02:40:54;101146.31;;;21.81;100.00
61318;BME280;47201;40.428;-8.436;2023-08-12T02:42:55;101146.25;;;21.82;100.00
61318;BME280;47201;40.428;-8.436;2023-08-12T02:44:56;101152.41;;;21.83;100.00
61318;BME280;47201;40.428;-8.436;2023-08-12T02:46:57;101146.25;;;21.82;100.00
61318;BME280;47201;40.428;-8.436;2023-08-12T02:48:57;101145.44;;;21.80;100.00
61318;BME280;47201;40.428;-8.436;2023-08-12T02:50:58;101143.50;;;21.84;100.00
61318;BME280;47201;40.428;-8.436;2023-08-12T02:52:58;101144.59;;;21.80;100.00
61318;BME280;47201;40.428;-8.436;2023-08-12T02:54:59;101144.78;;;21.75;100.00
61318;BME280;47201;40.428;-8.436;2023-08-12T02:57:00;101136.72;;;21.77;100.00
61318;BME280;47201;40.428;-8.436;2023-08-12T02:59:00;101131.94;;;21.85;100.00
61318;BME280;47201;40.428;-8.436;2023-08-12T03:01:01;101135.47;;;21.85;100.00
61318;BME280;47201;40.428;-8.436;2023-08-12T03:03:04;101133.47;;;21.91;100.00
61318;BME280;47201;40.428;-8.436;2023-08-12T03:05:04;101122.22;;;21.84;100.00
61318;BME280;47201;40.428;-8.436;2023-08-12T03:07:05;101122.22;;;21.84;100.00
61318;BME280;47201;40.428;-8.436;2023-08-12T03:09:06;101130.34;;;21.81;100.00
61318;BME280;47201;40.428;-8.436;2023-08-12T03:11:07;101124.97;;;21.82;100.00
61318;BME280;47201;40.428;-8.436;2023-08-12T03:13:08;101117.09;;;21.79;100.00
61318;BME280;47201;40.428;-8.436;2023-08-12T03:15:08;101115.97;;;21.85;100.00
61318;BME280;47201;40.428;-8.436;2023-08-12T03:17:09;101113.69;;;21.76;100.00
61318;BME280;47201;40.428;-8.436;2023-08-12T03:19:11;101125.16;;;21.78;100.00
61318;BME280;47201;40.428;-8.436;2023-08-12T03:21:11;101121.63;;;21.77;100.00
61318;BME280;47201;40.428;-8.436;2023-08-12T03:23:14;101111.09;;;21.74;100.00
61318;BME280;47201;40.428;-8.436;2023-08-12T03:25:16;101118.28;;;21.72;100.00
61318;BME280;47201;40.428;-8.436;2023-08-12T03:27:19;101114.75;;;21.71;100.00
61318;BME280;47201;40.428;-8.436;2023-08-12T03:29:20;101113.03;;;21.70;100.00
61318;BME280;47201;40.428;-8.436;2023-08-12T03:31:23;101112.91;;;21.74;100.00
61318;BME280;47201;40.428;-8.436;2023-08-12T03:33:24;101098.06;;;21.68;100.00
61318;BME280;47201;40.428;-8.436;2023-08-12T03:35:27;101101.31;;;21.75;100.00
61318;BME280;47201;40.428;-8.436;2023-08-12T03:37:27;101104.13;;;21.71;100.00
61318;BME280;47201;40.428;-8.436;2023-08-12T03:39:29;101106.03;;;21.68;100.00
61318;BME280;47201;40.428;-8.436;2023-08-12T03:41:31;101094.53;;;21.67;100.00
61318;BME280;47201;40.428;-8.436;2023-08-12T03:43:35;101099.72;;;21.70;100.00
61318;BME280;47201;40.428;-8.436;2023-08-12T03:45:43;101097.91;;;21.71;100.00
61318;BME280;47201;40.428;-8.436;2023-08-12T03:47:45;101098.00;;;21.69;100.00
61318;BME280;47201;40.428;-8.436;2023-08-12T03:49:46;101093.56;;;21.70;100.00
61318;BME280;47201;40.428;-8.436;2023-08-12T03:51:47;101097.06;;;21.70;100.00
61318;BME280;47201;40.428;-8.436;2023-08-12T03:53:48;101099.72;;;21.70;100.00
61318;BME280;47201;40.428;-8.436;2023-08-12T03:55:48;101095.22;;;21.73;100.00
61318;BME280;47201;40.428;-8.436;2023-08-12T03:57:50;101085.34;;;21.75;100.00
61318;BME280;47201;40.428;-8.436;2023-08-12T03:59:52;101089.75;;;21.76;100.00
61318;BME280;47201;40.428;-8.436;2023-08-12T04:01:52;101088.97;;;21.74;100.00
61318;BME280;47201;40.428;-8.436;2023-08-12T04:03:53;101083.88;;;21.67;100.00
61318;BME280;47201;40.428;-8.436;2023-08-12T04:05:54;101085.63;;;21.68;100.00
61318;BME280;47201;40.428;-8.436;2023-08-12T04:07:55;101091.09;;;21.65;100.00
61318;BME280;47201;40.428;-8.436;2023-08-12T04:09:56;101088.28;;;21.68;100.00
61318;BME280;47201;40.428;-8.436;2023-08-12T04:11:57;101083.03;;;21.67;100.00
61318;BME280;47201;40.428;-8.436;2023-08-12T04:13:57;101090.81;;;21.71;100.00
61318;BME280;47201;40.428;-8.436;2023-08-12T04:15:58;101082.84;;;21.71;100.00
61318;BME280;47201;40.428;-8.436;2023-08-12T04:17:59;101083.94;;;21.66;100.00
61318;BME280;47201;40.428;-8.436;2023-08-12T04:20:00;101089.19;;;21.67;100.00
61318;BME280;47201;40.428;-8.436;2023-08-12T04:22:01;101081.22;;;21.67;100.00
61318;BME280;47201;40.428;-8.436;2023-08-12T04:24:04;101080.63;;;21.61;100.00
61318;BME280;47201;40.428;-8.436;2023-08-12T04:26:05;101080.38;;;21.67;100.00
61318;BME280;47201;40.428;-8.436;2023-08-12T04:28:06;101083.94;;;21.66;100.00
61318;BME280;47201;40.428;-8.436;2023-08-12T04:30:08;101090.00;;;21.69;100.00
61318;BME280;47201;40.428;-8.436;2023-08-12T04:32:09;101082.28;;;21.63;100.00
61318;BME280;47201;40.428;-8.436;2023-08-12T04:34:10;101090.38;;;21.60;100.00
61318;BME280;47201;40.428;-8.436;2023-08-12T04:36:11;101084.16;;;21.61;100.00
61318;BME280;47201;40.428;-8.436;2023-08-12T04:38:12;101080.75;;;21.58;100.00
61318;BME280;47201;40.428;-8.436;2023-08-12T04:40:15;101084.16;;;21.61;100.00
61318;BME280;47201;40.428;-8.436;2023-08-12T04:42:15;101085.94;;;21.61;100.00
61318;BME280;47201;40.428;-8.436;2023-08-12T04:44:16;101086.88;;;21.60;100.00
61318;BME280;47201;40.428;-8.436;2023-08-12T04:46:17;101091.44;;;21.56;100.00
61318;BME280;47201;40.428;-8.436;2023-08-12T04:48:18;101088.84;;;21.54;100.00
61318;BME280;47201;40.428;-8.436;2023-08-12T04:50:19;101092.44;;;21.53;100.00
61318;BME280;47201;40.428;-8.436;2023-08-12T04:52:20;101095.16;;;21.52;100.00
61318;BME280;47201;40.428;-8.436;2023-08-12T04:54:22;101092.53;;;21.50;100.00
61318;BME280;47201;40.428;-8.436;2023-08-12T04:56:23;101088.09;;;21.51;100.00
61318;BME280;47201;40.428;-8.436;2023-08-12T04:58:25;101086.22;;;21.53;100.00
61318;BME280;47201;40.428;-8.436;2023-08-12T05:00:26;101090.94;;;21.46;100.00
61318;BME280;47201;40.428;-8.436;2023-08-12T05:02:28;101090.06;;;21.46;100.00
61318;BME280;47201;40.428;-8.436;2023-08-12T05:04:29;101084.88;;;21.43;100.00
61318;BME280;47201;40.428;-8.436;2023-08-12T05:06:30;101097.25;;;21.44;100.00
61318;BME280;47201;40.428;-8.436;2023-08-12T05:08:32;101090.22;;;21.43;100.00
61318;BME280;47201;40.428;-8.436;2023-08-12T05:10:32;101096.38;;;21.43;100.00
61318;BME280;47201;40.428;-8.436;2023-08-12T05:12:33;101102.59;;;21.44;100.00
61318;BME280;47201;40.428;-8.436;2023-08-12T05:14:35;101084.88;;;21.43;100.00
61318;BME280;47201;40.428;-8.436;2023-08-12T05:16:36;101084.16;;;21.39;100.00
61318;BME280;47201;40.428;-8.436;2023-08-12T05:18:36;101087.06;;;21.33;100.00
61318;BME280;47201;40.428;-8.436;2023-08-12T05:20:37;101082.72;;;21.30;100.00
61318;BME280;47201;40.428;-8.436;2023-08-12T05:22:37;101086.44;;;21.26;100.00
61318;BME280;47201;40.428;-8.436;2023-08-12T05:24:38;101089.22;;;21.23;100.00
61318;BME280;47201;40.428;-8.436;2023-08-12T05:26:39;101091.94;;;21.21;100.00
61318;BME280;47201;40.428;-8.436;2023-08-12T05:28:39;101086.53;;;21.23;100.00
61318;BME280;47201;40.428;-8.436;2023-08-12T05:30:40;101090.94;;;21.24;100.00
61318;BME280;47201;40.428;-8.436;2023-08-12T05:32:40;101085.69;;;21.22;100.00
61318;BME280;47201;40.428;-8.436;2023-08-12T05:34:41;101083.03;;;21.22;100.00
61318;BME280;47201;40.428;-8.436;2023-08-12T05:36:42;101086.63;;;21.21;100.00
61318;BME280;47201;40.428;-8.436;2023-08-12T05:38:42;101096.50;;;21.18;100.00
61318;BME280;47201;40.428;-8.436;2023-08-12T05:40:43;101092.13;;;21.17;100.00
61318;BME280;47201;40.428;-8.436;2023-08-12T05:42:43;101092.94;;;21.19;100.00
61318;BME280;47201;40.428;-8.436;2023-08-12T05:44:44;101098.53;;;21.11;100.00
61318;BME280;47201;40.428;-8.436;2023-08-12T05:46:44;101100.34;;;21.11;100.00
61318;BME280;47201;40.428;-8.436;2023-08-12T05:48:45;101104.06;;;21.06;100.00
61318;BME280;47201;40.428;-8.436;2023-08-12T05:50:46;101103.25;;;21.04;100.00
61318;BME280;47201;40.428;-8.436;2023-08-12T05:52:46;101104.16;;;21.03;100.00
61318;BME280;47201;40.428;-8.436;2023-08-12T05:54:47;101106.94;;;21.00;100.00
61318;BME280;47201;40.428;-8.436;2023-08-12T05:56:48;101114.13;;;20.98;100.00
61318;BME280;47201;40.428;-8.436;2023-08-12T05:58:48;101103.59;;;20.95;100.00
61318;BME280;47201;40.428;-8.436;2023-08-12T06:00:49;101117.75;;;20.96;100.00
61318;BME280;47201;40.428;-8.436;2023-08-12T06:02:50;101115.16;;;20.94;100.00
61318;BME280;47201;40.428;-8.436;2023-08-12T06:04:51;101115.78;;;21.01;100.00
61318;BME280;47201;40.428;-8.436;2023-08-12T06:06:51;101120.97;;;21.04;100.00
61318;BME280;47201;40.428;-8.436;2023-08-12T06:08:52;101111.28;;;21.03;100.00
61318;BME280;47201;40.428;-8.436;2023-08-12T06:10:53;101114.78;;;21.03;100.00
61318;BME280;47201;40.428;-8.436;2023-08-12T06:12:53;101116.63;;;21.01;100.00
61318;BME280;47201;40.428;-8.436;2023-08-12T06:14:54;101121.03;;;21.02;100.00
61318;BME280;47201;40.428;-8.436;2023-08-12T06:16:55;101114.06;;;21.00;100.00
61318;BME280;47201;40.428;-8.436;2023-08-12T06:18:55;101117.53;;;21.02;100.00
61318;BME280;47201;40.428;-8.436;2023-08-12T06:20:56;101118.13;;;21.08;100.00
61318;BME280;47201;40.428;-8.436;2023-08-12T06:22:56;101117.22;;;21.10;100.00
61318;BME280;47201;40.428;-8.436;2023-08-12T06:24:57;101121.50;;;21.14;100.00
61318;BME280;47201;40.428;-8.436;2023-08-12T06:26:57;101125.00;;;21.14;100.00
61318;BME280;47201;40.428;-8.436;2023-08-12T06:28:58;101128.22;;;21.22;100.00
61318;BME280;47201;40.428;-8.436;2023-08-12T06:30:58;101123.47;;;21.31;100.00
61318;BME280;47201;40.428;-8.436;2023-08-12T06:32:59;101132.03;;;21.39;100.00
61318;BME280;47201;40.428;-8.436;2023-08-12T06:35:00;101139.81;;;21.44;100.00
61318;BME280;47201;40.428;-8.436;2023-08-12T06:37:00;101138.47;;;21.55;100.00
61318;BME280;47201;40.428;-8.436;2023-08-12T06:39:01;101137.56;;;21.55;100.00
61318;BME280;47201;40.428;-8.436;2023-08-12T06:41:01;101146.75;;;21.70;100.00
61318;BME280;47201;40.428;-8.436;2023-08-12T06:43:02;101146.53;;;21.75;100.00
61318;BME280;47201;40.428;-8.436;2023-08-12T06:45:03;101147.34;;;21.77;100.00
61318;BME280;47201;40.428;-8.436;2023-08-12T06:47:04;101151.75;;;21.78;100.00
61318;BME280;47201;40.428;-8.436;2023-08-12T06:49:05;101146.50;;;21.76;100.00
61318;BME280;47201;40.428;-8.436;2023-08-12T06:51:05;101147.50;;;21.74;100.00
61318;BME280;47201;40.428;-8.436;2023-08-12T06:53:10;101155.28;;;21.78;100.00
61318;BME280;47201;40.428;-8.436;2023-08-12T06:55:11;101148.97;;;21.59;100.00
61318;BME280;47201;40.428;-8.436;2023-08-12T06:57:11;101152.53;;;21.59;100.00
61318;BME280;47201;40.428;-8.436;2023-08-12T06:59:12;101160.06;;;21.70;100.00
61318;BME280;47201;40.428;-8.436;2023-08-12T07:01:13;101156.50;;;21.92;100.00
61318;BME280;47201;40.428;-8.436;2023-08-12T07:03:13;101150.78;;;22.01;100.00
61318;BME280;47201;40.428;-8.436;2023-08-12T07:05:14;101155.63;;;22.12;100.00
61318;BME280;47201;40.428;-8.436;2023-08-12T07:07:14;101151.84;;;22.38;100.00
61318;BME280;47201;40.428;-8.436;2023-08-12T07:09:15;101158.94;;;22.79;100.00
61318;BME280;47201;40.428;-8.436;2023-08-12T07:11:17;101152.19;;;23.10;100.00
61318;BME280;47201;40.428;-8.436;2023-08-12T07:13:17;101162.31;;;23.41;100.00
61318;BME280;47201;40.428;-8.436;2023-08-12T07:15:18;101163.19;;;23.96;100.00
61318;BME280;47201;40.428;-8.436;2023-08-12T07:17:18;101162.81;;;24.21;100.00
61318;BME280;47201;40.428;-8.436;2023-08-12T07:19:19;101169.31;;;24.33;100.00
61318;BME280;47201;40.428;-8.436;2023-08-12T07:21:19;101172.38;;;24.43;100.00
61318;BME280;47201;40.428;-8.436;2023-08-12T07:23:20;101179.72;;;24.73;100.00
61318;BME280;47201;40.428;-8.436;2023-08-12T07:25:21;101177.16;;;24.87;100.00
61318;BME280;47201;40.428;-8.436;2023-08-12T07:27:21;101185.34;;;25.66;100.00
61318;BME280;47201;40.428;-8.436;2023-08-12T07:29:22;101183.31;;;26.47;94.60
61318;BME280;47201;40.428;-8.436;2023-08-12T07:31:23;101186.00;;;27.19;90.27
61318;BME280;47201;40.428;-8.436;2023-08-12T07:33:23;101188.78;;;28.40;84.74
61318;BME280;47201;40.428;-8.436;2023-08-12T07:35:25;101193.88;;;28.57;81.14
61318;BME280;47201;40.428;-8.436;2023-08-12T07:37:25;101193.09;;;27.89;82.41
61318;BME280;47201;40.428;-8.436;2023-08-12T07:39:26;101199.69;;;27.70;82.69
61318;BME280;47201;40.428;-8.436;2023-08-12T07:41:27;101200.84;;;28.60;81.61
61318;BME280;47201;40.428;-8.436;2023-08-12T07:43:28;101204.44;;;29.23;74.26
61318;BME280;47201;40.428;-8.436;2023-08-12T07:45:28;101209.31;;;29.93;72.01
61318;BME280;47201;40.428;-8.436;2023-08-12T07:47:29;101211.81;;;31.33;69.86
61318;BME280;47201;40.428;-8.436;2023-08-12T07:49:30;101217.84;;;32.02;70.10
61318;BME280;47201;40.428;-8.436;2023-08-12T07:51:30;101219.47;;;32.68;71.23
61318;BME280;47201;40.428;-8.436;2023-08-12T07:53:31;101218.13;;;31.99;73.74
61318;BME280;47201;40.428;-8.436;2023-08-12T07:55:32;101219.47;;;31.61;75.50
61318;BME280;47201;40.428;-8.436;2023-08-12T07:57:32;101225.88;;;31.71;75.27
61318;BME280;47201;40.428;-8.436;2023-08-12T07:59:33;101227.41;;;32.60;72.84
61318;BME280;47201;40.428;-8.436;2023-08-12T08:01:34;101224.63;;;33.63;71.89
61318;BME280;47201;40.428;-8.436;2023-08-12T08:03:34;101224.66;;;34.31;73.88
61318;BME280;47201;40.428;-8.436;2023-08-12T08:05:35;101226.47;;;34.98;75.17
61318;BME280;47201;40.428;-8.436;2023-08-12T08:07:36;101225.53;;;36.62;75.87
61318;BME280;47201;40.428;-8.436;2023-08-12T08:09:36;101235.50;;;37.82;76.41
61318;BME280;47201;40.428;-8.436;2023-08-12T08:11:37;101237.16;;;37.58;78.24
61318;BME280;47201;40.428;-8.436;2023-08-12T08:13:38;101230.91;;;37.99;79.58
61318;BME280;47201;40.428;-8.436;2023-08-12T08:15:38;101231.59;;;37.84;79.83
61318;BME280;47201;40.428;-8.436;2023-08-12T08:17:39;101229.88;;;37.15;81.19
61318;BME280;47201;40.428;-8.436;2023-08-12T08:19:39;101236.50;;;37.13;81.68
61318;BME280;47201;40.428;-8.436;2023-08-12T08:21:40;101235.69;;;38.21;80.54
61318;BME280;47201;40.428;-8.436;2023-08-12T08:23:41;101229.97;;;36.97;81.85
61318;BME280;47201;40.428;-8.436;2023-08-12T08:25:42;101229.91;;;37.32;81.45
61318;BME280;47201;40.428;-8.436;2023-08-12T08:27:43;101228.84;;;37.76;80.92
61318;BME280;47201;40.428;-8.436;2023-08-12T08:29:43;101226.81;;;39.40;79.36
61318;BME280;47201;40.428;-8.436;2023-08-12T08:31:44;101238.41;;;39.65;79.89
61318;BME280;47201;40.428;-8.436;2023-08-12T08:33:44;101237.69;;;39.48;79.64
61318;BME280;47201;40.428;-8.436;2023-08-12T08:35:45;101235.81;;;37.70;83.31
61318;BME280;47201;40.428;-8.436;2023-08-12T08:37:46;101238.53;;;38.61;82.22
61318;BME280;47201;40.428;-8.436;2023-08-12T08:39:46;101233.88;;;39.81;80.67
61318;BME280;47201;40.428;-8.436;2023-08-12T08:41:48;101232.84;;;38.87;81.95
61318;BME280;47201;40.428;-8.436;2023-08-12T08:43:49;101240.81;;;38.97;80.94
61318;BME280;47201;40.428;-8.436;2023-08-12T08:45:53;101239.94;;;37.74;82.58
61318;BME280;47201;40.428;-8.436;2023-08-12T08:47:54;101236.44;;;35.63;85.76
61318;BME280;47201;40.428;-8.436;2023-08-12T08:49:55;101234.78;;;35.24;86.27
61318;BME280;47201;40.428;-8.436;2023-08-12T08:51:58;101229.94;;;35.46;85.56
61318;BME280;47201;40.428;-8.436;2023-08-12T08:53:59;101233.56;;;35.09;85.41
61318;BME280;47201;40.428;-8.436;2023-08-12T08:56:02;101236.56;;;35.44;84.81
61318;BME280;47201;40.428;-8.436;2023-08-12T08:58:05;101244.19;;;36.57;83.18
61318;BME280;47201;40.428;-8.436;2023-08-12T09:00:07;101236.34;;;37.14;82.98
61318;BME280;47201;40.428;-8.436;2023-08-12T09:02:16;101241.47;;;38.27;81.89
61318;BME280;47201;40.428;-8.436;2023-08-12T09:04:21;101248.56;;;38.69;81.12
61318;BME280;47201;40.428;-8.436;2023-08-12T09:06:24;101242.78;;;38.72;81.67
61318;BME280;47201;40.428;-8.436;2023-08-12T09:08:26;101245.91;;;37.94;82.80
61318;BME280;47201;40.428;-8.436;2023-08-12T09:10:28;101244.31;;;37.51;83.50
61318;BME280;47201;40.428;-8.436;2023-08-12T09:12:30;101251.44;;;38.92;81.82
61318;BME280;47201;40.428;-8.436;2023-08-12T09:14:32;101242.63;;;39.53;81.07
61318;BME280;47201;40.428;-8.436;2023-08-12T09:16:33;101245.97;;;39.32;81.03
61318;BME280;47201;40.428;-8.436;2023-08-12T09:18:34;101248.91;;;37.42;83.43
61318;BME280;47201;40.428;-8.436;2023-08-12T09:20:35;101246.41;;;37.22;83.66
61318;BME280;47201;40.428;-8.436;2023-08-12T09:22:37;101245.94;;;38.44;81.58
61318;BME280;47201;40.428;-8.436;2023-08-12T09:24:37;101243.13;;;38.77;81.47
61318;BME280;47201;40.428;-8.436;2023-08-12T09:26:38;101234.50;;;39.68;80.54
61318;BME280;47201;40.428;-8.436;2023-08-12T09:28:39;101244.47;;;39.84;79.98
61318;BME280;47201;40.428;-8.436;2023-08-12T09:30:39;101251.00;;;39.98;80.32
61318;BME280;47201;40.428;-8.436;2023-08-12T09:32:40;101249.75;;;39.86;80.69
61318;BME280;47201;40.428;-8.436;2023-08-12T09:34:48;101256.78;;;39.25;81.04
61318;BME280;47201;40.428;-8.436;2023-08-12T09:36:49;101249.50;;;38.45;82.27
61318;BME280;47201;40.428;-8.436;2023-08-12T09:38:51;101248.91;;;38.74;81.99
61318;BME280;47201;40.428;-8.436;2023-08-12T09:40:52;101252.69;;;39.21;81.49
61318;BME280;47201;40.428;-8.436;2023-08-12T09:42:54;101252.00;;;39.19;81.38
61318;BME280;47201;40.428;-8.436;2023-08-12T09:44:56;101245.34;;;38.65;81.81
61318;BME280;47201;40.428;-8.436;2023-08-12T09:46:57;101245.19;;;37.76;83.62
61318;BME280;47201;40.428;-8.436;2023-08-12T09:48:59;101253.59;;;38.07;82.48
61318;BME280;47201;40.428;-8.436;2023-08-12T09:50:59;101254.38;;;37.58;83.20
61318;BME280;47201;40.428;-8.436;2023-08-12T09:53:01;101247.41;;;37.72;82.64
61318;BME280;47201;40.428;-8.436;2023-08-12T09:55:03;101242.81;;;37.56;83.41
61318;BME280;47201;40.428;-8.436;2023-08-12T09:57:08;101237.59;;;38.04;83.08
61318;BME280;47201;40.428;-8.436;2023-08-12T09:59:12;101243.34;;;38.26;82.14
61318;BME280;47201;40.428;-8.436;2023-08-12T10:01:18;101236.00;;;37.77;82.37
61318;BME280;47201;40.428;-8.436;2023-08-12T10:03:20;101234.81;;;38.37;82.16
61318;BME280;47201;40.428;-8.436;2023-08-12T10:05:32;101238.94;;;38.08;82.67
61318;BME280;47201;40.428;-8.436;2023-08-12T10:07:33;101224.91;;;38.45;81.86
61318;BME280;47201;40.428;-8.436;2023-08-12T10:09:34;101228.31;;;39.11;80.89
61318;BME280;47201;40.428;-8.436;2023-08-12T10:11:36;101224.53;;;37.49;82.83
61318;BME280;47201;40.428;-8.436;2023-08-12T10:13:37;101231.91;;;37.56;82.36
61318;BME280;47201;40.428;-8.436;2023-08-12T10:15:39;101234.13;;;38.44;81.51
61318;BME280;47201;40.428;-8.436;2023-08-12T10:17:40;101236.19;;;38.08;81.76
61318;BME280;47201;40.428;-8.436;2023-08-12T10:19:45;101235.88;;;37.95;81.75
61318;BME280;47201;40.428;-8.436;2023-08-12T10:21:49;101231.41;;;38.44;81.75